sensor_id;sensor_type;location;lat;lon;timestamp;pressure;altitude;pressure_sealevel;temperature;humidity
7662;BME280;30314;48.184;11.510;2023-02-17T00:01:22;96812.66;;;7.12;61.46
7662;BME280;30314;48.184;11.510;2023-02-17T00:03:50;96782.19;;;6.94;61.43
7662;BME280;30314;48.184;11.510;2023-02-17T00:06:19;96814.50;;;7.12;61.74
7662;BME280;30314;48.184;11.510;2023-02-17T00:08:47;96819.44;;;7.08;61.93
7662;BME280;30314;48.184;11.510;2023-02-17T00:11:14;96801.91;;;6.97;61.69
7662;BME280;30314;48.184;11.510;2023-02-17T00:13:41;96809.56;;;7.15;62.25
7662;BME280;30314;48.184;11.510;2023-02-17T00:16:10;96783.13;;;6.88;62.64
7662;BME280;30314;48.184;11.510;2023-02-17T00:18:37;96792.22;;;6.97;63.80
7662;BME280;30314;48.184;11.510;2023-02-17T00:21:16;96804.53;;;7.14;62.40
7662;BME280;30314;48.184;11.510;2023-02-17T00:23:43;96806.53;;;7.07;61.74
7662;BME280;30314;48.184;11.510;2023-02-17T00:26:10;96807.00;;;7.03;61.83
7662;BME280;30314;48.184;11.510;2023-02-17T00:28:37;96793.25;;;6.96;61.95
7662;BME280;30314;48.184;11.510;2023-02-17T00:31:15;96806.69;;;7.00;62.50
7662;BME280;30314;48.184;11.510;2023-02-17T00:33:42;96774.06;;;6.79;62.35
7662;BME280;30314;48.184;11.510;2023-02-17T00:36:14;96803.50;;;6.98;62.71
7662;BME280;30314;48.184;11.510;2023-02-17T00:38:43;96810.06;;;6.95;62.94
7662;BME280;30314;48.184;11.510;2023-02-17T00:41:10;96787.75;;;6.81;62.71
7662;BME280;30314;48.184;11.510;2023-02-17T00:43:37;96807.88;;;6.92;63.06
7662;BME280;30314;48.184;11.510;2023-02-17T00:46:04;96806.22;;;6.86;62.58
7662;BME280;30314;48.184;11.510;2023-02-17T00:48:31;96807.66;;;6.94;63.39
7662;BME280;30314;48.184;11.510;2023-02-17T00:50:58;96791.16;;;6.81;63.83
7662;BME280;30314;48.184;11.510;2023-02-17T00:53:25;96785.28;;;6.74;63.37
7662;BME280;30314;48.184;11.510;2023-02-17T00:55:52;96800.00;;;6.75;64.14
7662;BME280;30314;48.184;11.510;2023-02-17T00:58:18;96792.81;;;6.70;64.87
7662;BME280;30314;48.184;11.510;2023-02-17T01:00:45;96786.28;;;6.56;64.86
7662;BME280;30314;48.184;11.510;2023-02-17T01:03:11;96798.09;;;6.58;64.41
7662;BME280;30314;48.184;11.510;2023-02-17T01:05:42;96796.50;;;6.57;64.12
7662;BME280;30314;48.184;11.510;2023-02-17T01:08:09;96790.84;;;6.48;64.29
7662;BME280;30314;48.184;11.510;2023-02-17T01:10:40;96809.50;;;6.64;64.71
7662;BME280;30314;48.184;11.510;2023-02-17T01:13:07;96797.94;;;6.48;64.28
7662;BME280;30314;48.184;11.510;2023-02-17T01:15:43;96793.84;;;6.40;64.88
7662;BME280;30314;48.184;11.510;2023-02-17T01:18:12;96805.97;;;6.41;65.42
7662;BME280;30314;48.184;11.510;2023-02-17T01:20:40;96804.28;;;6.35;65.48
7662;BME280;30314;48.184;11.510;2023-02-17T01:23:07;96800.88;;;6.34;66.11
7662;BME280;30314;48.184;11.510;2023-02-17T01:25:43;96793.34;;;6.26;65.95
7662;BME280;30314;48.184;11.510;2023-02-17T01:28:15;96780.16;;;6.21;65.60
7662;BME280;30314;48.184;11.510;2023-02-17T01:30:45;96766.03;;;6.10;66.60
7662;BME280;30314;48.184;11.510;2023-02-17T01:33:12;96783.00;;;6.19;66.09
7662;BME280;30314;48.184;11.510;2023-02-17T01:35:38;96777.44;;;6.16;66.64
7662;BME280;30314;48.184;11.510;2023-02-17T01:38:05;96784.25;;;6.17;66.41
7662;BME280;30314;48.184;11.510;2023-02-17T01:40:31;96770.09;;;6.01;67.51
7662;BME280;30314;48.184;11.510;2023-02-17T01:42:58;96784.06;;;6.06;67.22
7662;BME280;30314;48.184;11.510;2023-02-17T01:45:34;96773.81;;;6.05;66.50
7662;BME280;30314;48.184;11.510;2023-02-17T01:48:04;96799.38;;;6.27;65.88
7662;BME280;30314;48.184;11.510;2023-02-17T01:50:35;96769.56;;;6.16;65.48
7662;BME280;30314;48.184;11.510;2023-02-17T01:53:05;96773.78;;;6.17;65.63
7662;BME280;30314;48.184;11.510;2023-02-17T01:55:33;96776.09;;;6.30;65.15
7662;BME280;30314;48.184;11.510;2023-02-17T01:58:05;96755.25;;;6.24;64.56
7662;BME280;30314;48.184;11.510;2023-02-17T02:00:33;96785.53;;;6.43;64.26
7662;BME280;30314;48.184;11.510;2023-02-17T02:03:03;96780.28;;;6.43;64.04
7662;BME280;30314;48.184;11.510;2023-02-17T02:05:32;96768.41;;;6.41;63.88
7662;BME280;30314;48.184;11.510;2023-02-17T02:07:58;96764.94;;;6.52;64.35
7662;BME280;30314;48.184;11.510;2023-02-17T02:10:25;96746.41;;;6.42;63.30
7662;BME280;30314;48.184;11.510;2023-02-17T02:12:51;96764.00;;;6.58;63.29
7662;BME280;30314;48.184;11.510;2023-02-17T02:15:25;96758.88;;;6.52;63.04
7662;BME280;30314;48.184;11.510;2023-02-17T02:34:51;96767.38;;;6.88;61.36
7662;BME280;30314;48.184;11.510;2023-02-17T02:37:26;96788.47;;;6.93;62.21
7662;BME280;30314;48.184;11.510;2023-02-17T02:39:59;96777.34;;;6.86;61.47
7662;BME280;30314;48.184;11.510;2023-02-17T02:42:30;96760.50;;;6.70;62.66
7662;BME280;30314;48.184;11.510;2023-02-17T02:44:58;96786.25;;;6.85;62.39
7662;BME280;30314;48.184;11.510;2023-02-17T02:47:51;96755.97;;;6.65;63.47
7662;BME280;30314;48.184;11.510;2023-02-17T02:52:59;96776.28;;;6.87;63.16
7662;BME280;30314;48.184;11.510;2023-02-17T02:55:40;96753.84;;;6.79;63.14
7662;BME280;30314;48.184;11.510;2023-02-17T02:58:19;96753.06;;;6.96;63.08
7662;BME280;30314;48.184;11.510;2023-02-17T03:01:02;96745.50;;;6.99;62.27
7662;BME280;30314;48.184;11.510;2023-02-17T03:04:02;96759.81;;;7.09;62.40
7662;BME280;30314;48.184;11.510;2023-02-17T03:06:36;96745.88;;;7.08;62.63
7662;BME280;30314;48.184;11.510;2023-02-17T03:09:10;96753.59;;;7.15;62.95
7662;BME280;30314;48.184;11.510;2023-02-17T03:11:39;96745.78;;;7.20;61.70
7662;BME280;30314;48.184;11.510;2023-02-17T03:14:10;96754.06;;;7.29;61.66
7662;BME280;30314;48.184;11.510;2023-02-17T03:16:38;96751.19;;;7.30;62.64
7662;BME280;30314;48.184;11.510;2023-02-17T03:19:06;96739.78;;;7.25;62.14
7662;BME280;30314;48.184;11.510;2023-02-17T03:21:41;96732.63;;;7.20;62.11
7662;BME280;30314;48.184;11.510;2023-02-17T03:24:09;96732.09;;;7.18;62.30
7662;BME280;30314;48.184;11.510;2023-02-17T03:26:35;96733.63;;;7.14;63.14
7662;BME280;30314;48.184;11.510;2023-02-17T03:29:02;96741.16;;;7.27;62.48
7662;BME280;30314;48.184;11.510;2023-02-17T03:31:28;96727.69;;;7.24;63.13
7662;BME280;30314;48.184;11.510;2023-02-17T03:33:56;96738.75;;;7.26;62.21
7662;BME280;30314;48.184;11.510;2023-02-17T03:36:23;96717.78;;;7.09;62.14
7662;BME280;30314;48.184;11.510;2023-02-17T03:38:50;96719.50;;;7.20;62.70
7662;BME280;30314;48.184;11.510;2023-02-17T03:41:16;96735.69;;;7.51;59.80
7662;BME280;30314;48.184;11.510;2023-02-17T03:43:43;96713.00;;;7.45;60.32
7662;BME280;30314;48.184;11.510;2023-02-17T03:46:14;96708.00;;;7.66;58.86
7662;BME280;30314;48.184;11.510;2023-02-17T03:48:41;96724.97;;;7.80;59.61
7662;BME280;30314;48.184;11.510;2023-02-17T03:51:15;96721.31;;;7.59;59.60
7662;BME280;30314;48.184;11.510;2023-02-17T03:53:43;96727.22;;;7.94;57.21
7662;BME280;30314;48.184;11.510;2023-02-17T03:56:10;96730.34;;;7.91;58.31
7662;BME280;30314;48.184;11.510;2023-02-17T03:58:37;96735.06;;;7.88;57.95
7662;BME280;30314;48.184;11.510;2023-02-17T04:01:05;96726.06;;;7.84;58.59
7662;BME280;30314;48.184;11.510;2023-02-17T04:03:32;96720.94;;;7.72;58.66
7662;BME280;30314;48.184;11.510;2023-02-17T04:05:59;96708.16;;;7.81;58.28
7662;BME280;30314;48.184;11.510;2023-02-17T04:08:26;96703.50;;;7.66;58.67
7662;BME280;30314;48.184;11.510;2023-02-17T04:10:55;96725.88;;;7.91;58.09
7662;BME280;30314;48.184;11.510;2023-02-17T04:13:22;96703.44;;;7.83;57.19
7662;BME280;30314;48.184;11.510;2023-02-17T04:15:49;96702.94;;;7.86;57.02
7662;BME280;30314;48.184;11.510;2023-02-17T04:18:16;96693.91;;;7.77;57.78
7662;BME280;30314;48.184;11.510;2023-02-17T04:20:43;96714.38;;;7.97;56.44
7662;BME280;30314;48.184;11.510;2023-02-17T04:23:10;96689.34;;;7.67;57.35
7662;BME280;30314;48.184;11.510;2023-02-17T04:25:37;96720.81;;;7.84;58.11
7662;BME280;30314;48.184;11.510;2023-02-17T04:28:06;96716.72;;;7.94;57.32
7662;BME280;30314;48.184;11.510;2023-02-17T04:30:33;96662.13;;;7.56;57.62
7662;BME280;30314;48.184;11.510;2023-02-17T04:33:00;96718.28;;;7.95;56.74
7662;BME280;30314;48.184;11.510;2023-02-17T04:35:27;96704.97;;;7.79;57.15
7662;BME280;30314;48.184;11.510;2023-02-17T04:37:53;96717.94;;;7.86;57.99
7662;BME280;30314;48.184;11.510;2023-02-17T04:40:20;96696.59;;;7.82;57.88
7662;BME280;30314;48.184;11.510;2023-02-17T04:42:47;96705.03;;;7.84;57.04
7662;BME280;30314;48.184;11.510;2023-02-17T04:45:14;96697.88;;;8.02;55.58
7662;BME280;30314;48.184;11.510;2023-02-17T04:47:40;96686.72;;;7.95;55.89
7662;BME280;30314;48.184;11.510;2023-02-17T04:50:08;96708.59;;;7.95;57.43
7662;BME280;30314;48.184;11.510;2023-02-17T04:52:35;96703.50;;;8.16;56.16
7662;BME280;30314;48.184;11.510;2023-02-17T04:55:02;96696.13;;;8.13;56.42
7662;BME280;30314;48.184;11.510;2023-02-17T04:57:29;96695.41;;;8.23;55.41
7662;BME280;30314;48.184;11.510;2023-02-17T04:59:55;96688.47;;;8.11;55.93
7662;BME280;30314;48.184;11.510;2023-02-17T05:02:22;96642.56;;;7.97;54.15
7662;BME280;30314;48.184;11.510;2023-02-17T05:04:50;96680.97;;;8.25;54.61
7662;BME280;30314;48.184;11.510;2023-02-17T05:07:17;96696.31;;;8.34;54.30
7662;BME280;30314;48.184;11.510;2023-02-17T05:09:44;96675.84;;;8.41;53.64
7662;BME280;30314;48.184;11.510;2023-02-17T05:12:10;96676.84;;;8.35;54.10
7662;BME280;30314;48.184;11.510;2023-02-17T05:14:37;96675.53;;;8.37;54.48
7662;BME280;30314;48.184;11.510;2023-02-17T05:17:03;96692.28;;;8.26;55.91
7662;BME280;30314;48.184;11.510;2023-02-17T05:19:30;96662.41;;;8.10;55.03
7662;BME280;30314;48.184;11.510;2023-02-17T05:21:56;96696.00;;;8.30;55.88
7662;BME280;30314;48.184;11.510;2023-02-17T05:24:23;96685.69;;;8.23;55.98
7662;BME280;30314;48.184;11.510;2023-02-17T05:26:49;96680.59;;;8.44;54.71
7662;BME280;30314;48.184;11.510;2023-02-17T05:29:16;96685.53;;;8.35;55.26
7662;BME280;30314;48.184;11.510;2023-02-17T05:31:42;96693.50;;;8.45;55.23
7662;BME280;30314;48.184;11.510;2023-02-17T05:34:09;96673.50;;;8.17;56.61
7662;BME280;30314;48.184;11.510;2023-02-17T05:36:35;96665.94;;;8.21;56.33
7662;BME280;30314;48.184;11.510;2023-02-17T05:39:02;96625.94;;;7.91;56.16
7662;BME280;30314;48.184;11.510;2023-02-17T05:41:28;96679.13;;;8.26;56.53
7662;BME280;30314;48.184;11.510;2023-02-17T05:43:55;96680.75;;;8.32;56.48
7662;BME280;30314;48.184;11.510;2023-02-17T05:46:21;96675.94;;;8.24;56.41
7662;BME280;30314;48.184;11.510;2023-02-17T05:48:48;96675.72;;;8.25;56.67
7662;BME280;30314;48.184;11.510;2023-02-17T05:51:15;96676.44;;;8.21;57.03
7662;BME280;30314;48.184;11.510;2023-02-17T05:53:44;96683.41;;;8.32;56.40
7662;BME280;30314;48.184;11.510;2023-02-17T05:56:10;96678.66;;;8.34;56.73
7662;BME280;30314;48.184;11.510;2023-02-17T05:58:39;96696.09;;;8.40;56.24
7662;BME280;30314;48.184;11.510;2023-02-17T06:01:08;96678.88;;;8.27;56.87
7662;BME280;30314;48.184;11.510;2023-02-17T06:03:34;96683.59;;;8.25;56.94
7662;BME280;30314;48.184;11.510;2023-02-17T06:06:01;96689.31;;;8.50;56.39
7662;BME280;30314;48.184;11.510;2023-02-17T06:08:27;96699.91;;;8.55;57.27
7662;BME280;30314;48.184;11.510;2023-02-17T06:10:54;96705.72;;;8.57;57.26
7662;BME280;30314;48.184;11.510;2023-02-17T06:13:20;96697.53;;;8.58;57.56
7662;BME280;30314;48.184;11.510;2023-02-17T06:15:47;96705.41;;;8.53;58.39
7662;BME280;30314;48.184;11.510;2023-02-17T06:18:14;96705.13;;;8.50;59.63
7662;BME280;30314;48.184;11.510;2023-02-17T06:20:40;96725.75;;;8.63;58.76
7662;BME280;30314;48.184;11.510;2023-02-17T06:23:07;96716.19;;;8.52;61.91
7662;BME280;30314;48.184;11.510;2023-02-17T06:25:33;96708.75;;;8.43;65.79
7662;BME280;30314;48.184;11.510;2023-02-17T06:28:00;96719.28;;;8.43;68.50
7662;BME280;30314;48.184;11.510;2023-02-17T06:30:26;96714.47;;;8.35;70.57
7662;BME280;30314;48.184;11.510;2023-02-17T06:32:53;96722.44;;;8.40;74.11
7662;BME280;30314;48.184;11.510;2023-02-17T06:35:19;96706.75;;;8.23;74.67
7662;BME280;30314;48.184;11.510;2023-02-17T06:37:46;96730.78;;;8.32;76.98
7662;BME280;30314;48.184;11.510;2023-02-17T06:40:12;96716.66;;;8.16;80.17
7662;BME280;30314;48.184;11.510;2023-02-17T06:42:39;96718.44;;;8.10;78.77
7662;BME280;30314;48.184;11.510;2023-02-17T06:45:06;96713.25;;;8.15;79.55
7662;BME280;30314;48.184;11.510;2023-02-17T06:47:33;96702.44;;;8.12;76.59
7662;BME280;30314;48.184;11.510;2023-02-17T06:50:00;96689.84;;;8.19;75.27
7662;BME280;30314;48.184;11.510;2023-02-17T06:52:26;96707.91;;;8.38;74.99
7662;BME280;30314;48.184;11.510;2023-02-17T06:54:53;96714.44;;;8.30;76.43
7662;BME280;30314;48.184;11.510;2023-02-17T06:57:20;96701.63;;;8.39;73.15
7662;BME280;30314;48.184;11.510;2023-02-17T06:59:46;96658.06;;;8.26;71.05
7662;BME280;30314;48.184;11.510;2023-02-17T07:02:13;96705.75;;;8.62;71.08
7662;BME280;30314;48.184;11.510;2023-02-17T07:04:41;96691.81;;;8.34;71.49
7662;BME280;30314;48.184;11.510;2023-02-17T07:07:08;96703.16;;;8.67;69.36
7662;BME280;30314;48.184;11.510;2023-02-17T07:09:36;96690.47;;;8.64;69.62
7662;BME280;30314;48.184;11.510;2023-02-17T07:12:04;96695.25;;;8.67;73.37
7662;BME280;30314;48.184;11.510;2023-02-17T07:14:33;96710.84;;;8.74;73.63
7662;BME280;30314;48.184;11.510;2023-02-17T07:17:00;96696.22;;;8.56;73.52
7662;BME280;30314;48.184;11.510;2023-02-17T07:19:27;96713.97;;;8.71;73.80
7662;BME280;30314;48.184;11.510;2023-02-17T07:21:53;96726.47;;;8.86;73.97
7662;BME280;30314;48.184;11.510;2023-02-17T07:24:20;96733.28;;;8.82;75.84
7662;BME280;30314;48.184;11.510;2023-02-17T07:26:46;96725.94;;;8.84;75.27
7662;BME280;30314;48.184;11.510;2023-02-17T07:29:13;96703.13;;;9.00;72.08
7662;BME280;30314;48.184;11.510;2023-02-17T07:31:40;96728.25;;;9.18;74.11
7662;BME280;30314;48.184;11.510;2023-02-17T07:34:06;96715.03;;;9.13;75.14
7662;BME280;30314;48.184;11.510;2023-02-17T07:36:33;96712.69;;;9.16;75.88
7662;BME280;30314;48.184;11.510;2023-02-17T07:39:01;96718.38;;;9.41;72.33
7662;BME280;30314;48.184;11.510;2023-02-17T07:41:28;96722.66;;;9.47;72.18
7662;BME280;30314;48.184;11.510;2023-02-17T07:43:57;96732.41;;;9.52;73.78
7662;BME280;30314;48.184;11.510;2023-02-17T07:46:24;96730.56;;;9.47;73.64
7662;BME280;30314;48.184;11.510;2023-02-17T07:48:51;96721.56;;;9.43;74.16
7662;BME280;30314;48.184;11.510;2023-02-17T07:51:20;96716.84;;;9.50;73.34
7662;BME280;30314;48.184;11.510;2023-02-17T07:53:48;96729.25;;;9.55;73.29
7662;BME280;30314;48.184;11.510;2023-02-17T07:56:17;96734.88;;;9.74;69.72
7662;BME280;30314;48.184;11.510;2023-02-17T07:58:44;96730.94;;;9.82;70.62
7662;BME280;30314;48.184;11.510;2023-02-17T08:01:21;96748.06;;;9.74;73.98
7662;BME280;30314;48.184;11.510;2023-02-17T08:03:48;96739.09;;;9.75;71.00
7662;BME280;30314;48.184;11.510;2023-02-17T08:06:22;96712.88;;;9.48;75.80
7662;BME280;30314;48.184;11.510;2023-02-17T08:08:49;96744.34;;;9.65;78.72
7662;BME280;30314;48.184;11.510;2023-02-17T08:11:35;96747.28;;;9.73;74.26
7662;BME280;30314;48.184;11.510;2023-02-17T08:14:21;96749.13;;;9.73;75.74
7662;BME280;30314;48.184;11.510;2023-02-17T08:16:48;96743.34;;;9.81;72.87
7662;BME280;30314;48.184;11.510;2023-02-17T08:19:15;96730.66;;;9.73;74.68
7662;BME280;30314;48.184;11.510;2023-02-17T08:21:42;96723.78;;;9.72;73.26
7662;BME280;30314;48.184;11.510;2023-02-17T08:24:08;96748.63;;;9.81;76.04
7662;BME280;30314;48.184;11.510;2023-02-17T08:26:35;96731.44;;;9.73;74.16
7662;BME280;30314;48.184;11.510;2023-02-17T08:29:02;96737.53;;;9.74;78.79
7662;BME280;30314;48.184;11.510;2023-02-17T08:31:33;96749.38;;;9.77;81.18
7662;BME280;30314;48.184;11.510;2023-02-17T08:34:03;96737.47;;;9.64;91.42
7662;BME280;30314;48.184;11.510;2023-02-17T08:36:29;96734.56;;;9.60;93.98
7662;BME280;30314;48.184;11.510;2023-02-17T08:38:56;96721.84;;;9.47;91.32
7662;BME280;30314;48.184;11.510;2023-02-17T08:41:29;96710.47;;;9.41;89.24
7662;BME280;30314;48.184;11.510;2023-02-17T08:43:58;96734.25;;;9.46;86.34
7662;BME280;30314;48.184;11.510;2023-02-17T08:46:27;96747.50;;;9.67;83.49
7662;BME280;30314;48.184;11.510;2023-02-17T08:48:54;96748.84;;;9.69;85.99
7662;BME280;30314;48.184;11.510;2023-02-17T08:51:23;96747.78;;;9.70;82.95
7662;BME280;30314;48.184;11.510;2023-02-17T08:53:56;96735.59;;;9.54;83.76
7662;BME280;30314;48.184;11.510;2023-02-17T08:56:24;96769.13;;;9.64;88.87
7662;BME280;30314;48.184;11.510;2023-02-17T08:58:52;96767.50;;;9.57;88.50
7662;BME280;30314;48.184;11.510;2023-02-17T09:01:19;96770.66;;;9.54;91.00
7662;BME280;30314;48.184;11.510;2023-02-17T09:03:48;96767.94;;;9.44;94.35
7662;BME280;30314;48.184;11.510;2023-02-17T09:06:15;96775.84;;;9.39;92.73
7662;BME280;30314;48.184;11.510;2023-02-17T09:08:43;96765.22;;;9.28;94.39
7662;BME280;30314;48.184;11.510;2023-02-17T09:11:11;96773.22;;;9.44;93.20
7662;BME280;30314;48.184;11.510;2023-02-17T09:13:40;96764.47;;;9.33;93.71
7662;BME280;30314;48.184;11.510;2023-02-17T09:16:07;96760.25;;;9.27;94.33
7662;BME280;30314;48.184;11.510;2023-02-17T09:18:34;96775.38;;;9.47;92.96
7662;BME280;30314;48.184;11.510;2023-02-17T09:21:10;96770.09;;;9.47;93.78
7662;BME280;30314;48.184;11.510;2023-02-17T09:23:37;96779.69;;;9.64;92.28
7662;BME280;30314;48.184;11.510;2023-02-17T09:26:06;96776.53;;;9.67;91.69
7662;BME280;30314;48.184;11.510;2023-02-17T09:28:34;96756.69;;;9.59;92.49
7662;BME280;30314;48.184;11.510;2023-02-17T09:31:12;96767.59;;;9.73;92.51
7662;BME280;30314;48.184;11.510;2023-02-17T09:33:40;96748.06;;;9.74;89.93
7662;BME280;30314;48.184;11.510;2023-02-17T09:36:09;96754.47;;;9.89;90.17
7662;BME280;30314;48.184;11.510;2023-02-17T09:38:37;96752.88;;;9.98;87.22
7662;BME280;30314;48.184;11.510;2023-02-17T09:41:32;96763.75;;;10.12;83.61
7662;BME280;30314;48.184;11.510;2023-02-17T09:44:00;96753.16;;;10.01;87.65
7662;BME280;30314;48.184;11.510;2023-02-17T09:46:59;96768.50;;;10.10;87.91
7662;BME280;30314;48.184;11.510;2023-02-17T09:49:38;96765.09;;;10.20;84.90
7662;BME280;30314;48.184;11.510;2023-02-17T09:52:26;96766.44;;;10.22;84.71
7662;BME280;30314;48.184;11.510;2023-02-17T09:55:07;96776.75;;;10.34;84.95
7662;BME280;30314;48.184;11.510;2023-02-17T09:57:48;96776.53;;;10.46;82.53
7662;BME280;30314;48.184;11.510;2023-02-17T10:00:20;96765.16;;;10.61;80.82
7662;BME280;30314;48.184;11.510;2023-02-17T10:03:03;96761.47;;;10.57;83.79
7662;BME280;30314;48.184;11.510;2023-02-17T10:05:38;96768.31;;;10.63;83.78
7662;BME280;30314;48.184;11.510;2023-02-17T10:08:15;96770.97;;;10.74;81.10
7662;BME280;30314;48.184;11.510;2023-02-17T10:10:52;96751.19;;;10.87;82.00
7662;BME280;30314;48.184;11.510;2023-02-17T10:13:21;96738.72;;;11.03;81.00
7662;BME280;30314;48.184;11.510;2023-02-17T10:15:51;96771.50;;;11.38;79.00
7662;BME280;30314;48.184;11.510;2023-02-17T10:18:34;96749.81;;;11.31;78.03
7662;BME280;30314;48.184;11.510;2023-02-17T10:21:04;96761.44;;;11.40;77.82
7662;BME280;30314;48.184;11.510;2023-02-17T10:23:33;96744.28;;;11.27;79.03
7662;BME280;30314;48.184;11.510;2023-02-17T10:34:03;96758.94;;;11.80;74.85
7662;BME280;30314;48.184;11.510;2023-02-17T10:39:16;96754.00;;;12.13;69.01
7662;BME280;30314;48.184;11.510;2023-02-17T10:41:50;96750.59;;;12.12;69.03
7662;BME280;30314;48.184;11.510;2023-02-17T10:44:20;96727.91;;;11.91;68.60
7662;BME280;30314;48.184;11.510;2023-02-17T10:46:49;96759.13;;;11.99;70.81
7662;BME280;30314;48.184;11.510;2023-02-17T10:49:28;96757.78;;;12.02;67.83
7662;BME280;30314;48.184;11.510;2023-02-17T10:52:09;96750.50;;;12.28;67.20
7662;BME280;30314;48.184;11.510;2023-02-17T10:54:47;96756.16;;;12.51;68.85
7662;BME280;30314;48.184;11.510;2023-02-17T10:57:16;96726.50;;;12.49;67.51
7662;BME280;30314;48.184;11.510;2023-02-17T10:59:46;96730.84;;;12.74;64.32
7662;BME280;30314;48.184;11.510;2023-02-17T11:02:17;96735.97;;;12.95;65.02
7662;BME280;30314;48.184;11.510;2023-02-17T11:04:47;96728.31;;;12.93;60.31
7662;BME280;30314;48.184;11.510;2023-02-17T11:07:16;96749.03;;;12.86;62.90
7662;BME280;30314;48.184;11.510;2023-02-17T11:09:47;96735.28;;;12.84;60.65
7662;BME280;30314;48.184;11.510;2023-02-17T11:12:28;96734.53;;;12.78;61.79
7662;BME280;30314;48.184;11.510;2023-02-17T11:14:58;96721.84;;;12.75;63.71
7662;BME280;30314;48.184;11.510;2023-02-17T11:17:37;96729.72;;;12.86;63.51
7662;BME280;30314;48.184;11.510;2023-02-17T11:22:43;96726.25;;;12.85;62.95
7662;BME280;30314;48.184;11.510;2023-02-17T11:25:23;96733.94;;;12.87;64.72
7662;BME280;30314;48.184;11.510;2023-02-17T11:27:55;96727.28;;;12.89;63.58
7662;BME280;30314;48.184;11.510;2023-02-17T11:30:22;96730.41;;;12.96;60.73
7662;BME280;30314;48.184;11.510;2023-02-17T11:32:49;96728.25;;;12.99;60.23
7662;BME280;30314;48.184;11.510;2023-02-17T11:38:02;96719.78;;;12.96;63.65
7662;BME280;30314;48.184;11.510;2023-02-17T11:40:31;96718.63;;;13.08;61.26
7662;BME280;30314;48.184;11.510;2023-02-17T11:42:59;96693.66;;;12.85;62.03
7662;BME280;30314;48.184;11.510;2023-02-17T11:51:14;96686.50;;;12.85;63.39
7662;BME280;30314;48.184;11.510;2023-02-17T11:54:14;96686.44;;;12.90;64.47
7662;BME280;30314;48.184;11.510;2023-02-17T11:56:48;96690.91;;;12.95;63.13
7662;BME280;30314;48.184;11.510;2023-02-17T12:02:16;96678.53;;;12.85;63.08
7662;BME280;30314;48.184;11.510;2023-02-17T12:10:13;96665.25;;;13.39;62.09
7662;BME280;30314;48.184;11.510;2023-02-17T12:13:09;96673.31;;;13.53;61.37
7662;BME280;30314;48.184;11.510;2023-02-17T12:15:49;96677.94;;;13.42;61.23
7662;BME280;30314;48.184;11.510;2023-02-17T12:26:46;96669.84;;;13.04;62.86
7662;BME280;30314;48.184;11.510;2023-02-17T12:32:14;96666.19;;;13.00;64.54
7662;BME280;30314;48.184;11.510;2023-02-17T12:34:55;96667.38;;;12.88;65.75
7662;BME280;30314;48.184;11.510;2023-02-17T12:37:30;96662.31;;;12.92;64.10
7662;BME280;30314;48.184;11.510;2023-02-17T12:40:13;96660.50;;;12.87;65.17
7662;BME280;30314;48.184;11.510;2023-02-17T12:42:51;96649.31;;;12.90;66.03
7662;BME280;30314;48.184;11.510;2023-02-17T12:45:21;96663.78;;;13.03;64.16
7662;BME280;30314;48.184;11.510;2023-02-17T12:47:50;96670.41;;;13.06;65.25
7662;BME280;30314;48.184;11.510;2023-02-17T12:50:25;96679.97;;;13.02;62.62
7662;BME280;30314;48.184;11.510;2023-02-17T12:52:55;96659.66;;;12.92;64.31
7662;BME280;30314;48.184;11.510;2023-02-17T12:55:28;96665.22;;;12.90;65.43
7662;BME280;30314;48.184;11.510;2023-02-17T12:57:58;96666.09;;;12.86;65.58
7662;BME280;30314;48.184;11.510;2023-02-17T13:00:33;96665.53;;;12.89;64.73
7662;BME280;30314;48.184;11.510;2023-02-17T13:03:01;96680.59;;;12.93;64.61
7662;BME280;30314;48.184;11.510;2023-02-17T13:05:43;96665.28;;;12.85;67.14
7662;BME280;30314;48.184;11.510;2023-02-17T13:08:30;96674.22;;;12.94;65.54
7662;BME280;30314;48.184;11.510;2023-02-17T13:11:06;96658.97;;;12.81;65.03
7662;BME280;30314;48.184;11.510;2023-02-17T13:13:35;96657.72;;;12.68;66.00
7662;BME280;30314;48.184;11.510;2023-02-17T13:16:10;96678.53;;;12.85;67.41
7662;BME280;30314;48.184;11.510;2023-02-17T13:18:42;96668.88;;;12.65;68.75
7662;BME280;30314;48.184;11.510;2023-02-17T13:21:31;96682.41;;;12.63;68.81
7662;BME280;30314;48.184;11.510;2023-02-17T13:26:34;96675.06;;;12.55;69.53
7662;BME280;30314;48.184;11.510;2023-02-17T13:31:57;96667.75;;;12.42;70.81
7662;BME280;30314;48.184;11.510;2023-02-17T13:36:52;96656.28;;;12.17;72.69
7662;BME280;30314;48.184;11.510;2023-02-17T13:41:54;96649.84;;;12.28;71.32
7662;BME280;30314;48.184;11.510;2023-02-17T13:44:39;96655.06;;;12.38;71.45
7662;BME280;30314;48.184;11.510;2023-02-17T13:47:15;96659.88;;;12.31;70.94
7662;BME280;30314;48.184;11.510;2023-02-17T13:49:51;96664.44;;;12.25;72.73
7662;BME280;30314;48.184;11.510;2023-02-17T13:52:22;96668.47;;;12.18;72.55
7662;BME280;30314;48.184;11.510;2023-02-17T13:54:54;96653.69;;;12.06;73.77
7662;BME280;30314;48.184;11.510;2023-02-17T13:59:48;96658.38;;;12.20;72.71
7662;BME280;30314;48.184;11.510;2023-02-17T14:02:19;96649.72;;;12.09;74.10
7662;BME280;30314;48.184;11.510;2023-02-17T14:05:10;96664.69;;;12.24;71.84
7662;BME280;30314;48.184;11.510;2023-02-17T14:07:41;96662.13;;;12.14;73.14
7662;BME280;30314;48.184;11.510;2023-02-17T14:10:19;96647.06;;;12.09;72.02
7662;BME280;30314;48.184;11.510;2023-02-17T14:12:47;96668.50;;;12.12;73.65
7662;BME280;30314;48.184;11.510;2023-02-17T14:15:20;96673.25;;;12.10;73.88
7662;BME280;30314;48.184;11.510;2023-02-17T14:17:47;96647.06;;;12.09;72.13
7662;BME280;30314;48.184;11.510;2023-02-17T14:23:08;96675.09;;;12.15;73.94
7662;BME280;30314;48.184;11.510;2023-02-17T14:25:40;96673.75;;;12.18;74.18
7662;BME280;30314;48.184;11.510;2023-02-17T14:28:25;96679.59;;;12.15;73.48
7662;BME280;30314;48.184;11.510;2023-02-17T14:30:52;96656.88;;;12.08;73.12
7662;BME280;30314;48.184;11.510;2023-02-17T14:33:22;96642.50;;;12.20;71.07
7662;BME280;30314;48.184;11.510;2023-02-17T14:38:32;96668.94;;;12.25;71.89
7662;BME280;30314;48.184;11.510;2023-02-17T14:41:00;96671.69;;;12.09;73.57
7662;BME280;30314;48.184;11.510;2023-02-17T14:43:27;96674.88;;;12.11;72.39